sensor_id;sensor_type;location;lat;lon;timestamp;P1;P2;P0
69123;PMS5003;56232;53.384;-2.732;2023-12-07T00:01:33;27;27;
69123;PMS5003;56232;53.384;-2.732;2023-12-07T00:03:59;30;28;
69123;PMS5003;56232;53.384;-2.732;2023-12-07T00:06:25;25;25;
69123;PMS5003;56232;53.384;-2.732;2023-12-07T00:08:50;36;31;
69123;PMS5003;56232;53.384;-2.732;2023-12-07T00:11:15;30;29;
69123;PMS5003;56232;53.384;-2.732;2023-12-07T00:13:41;32;29;
69123;PMS5003;56232;53.384;-2.732;2023-12-07T00:16:06;30;28;
69123;PMS5003;56232;53.384;-2.732;2023-12-07T00:18:32;27;27;
69123;PMS5003;56232;53.384;-2.732;2023-12-07T00:20:58;33;30;
69123;PMS5003;56232;53.384;-2.732;2023-12-07T00:23:23;31;27;
69123;PMS5003;56232;53.384;-2.732;2023-12-07T00:25:49;35;32;
69123;PMS5003;56232;53.384;-2.732;2023-12-07T00:28:15;37;32;
69123;PMS5003;56232;53.384;-2.732;2023-12-07T00:30:40;28;26;
69123;PMS5003;56232;53.384;-2.732;2023-12-07T00:33:06;30;29;
69123;PMS5003;56232;53.384;-2.732;2023-12-07T00:35:32;28;28;
69123;PMS5003;56232;53.384;-2.732;2023-12-07T00:37:57;28;27;
69123;PMS5003;56232;53.384;-2.732;2023-12-07T00:40:22;30;29;
69123;PMS5003;56232;53.384;-2.732;2023-12-07T00:42:48;31;30;
69123;PMS5003;56232;53.384;-2.732;2023-12-07T00:45:14;32;30;
69123;PMS5003;56232;53.384;-2.732;2023-12-07T00:47:39;31;31;
69123;PMS5003;56232;53.384;-2.732;2023-12-07T00:50:06;28;28;
69123;PMS5003;56232;53.384;-2.732;2023-12-07T00:52:31;33;31;
69123;PMS5003;56232;53.384;-2.732;2023-12-07T00:54:56;34;28;
69123;PMS5003;56232;53.384;-2.732;2023-12-07T00:57:21;35;32;
69123;PMS5003;56232;53.384;-2.732;2023-12-07T00:59:47;35;29;
69123;PMS5003;56232;53.384;-2.732;2023-12-07T01:02:13;27;26;
69123;PMS5003;56232;53.384;-2.732;2023-12-07T01:04:38;30;28;
69123;PMS5003;56232;53.384;-2.732;2023-12-07T01:07:04;29;25;
69123;PMS5003;56232;53.384;-2.732;2023-12-07T01:09:29;28;27;
69123;PMS5003;56232;53.384;-2.732;2023-12-07T01:11:55;28;28;
69123;PMS5003;56232;53.384;-2.732;2023-12-07T01:14:20;28;26;
69123;PMS5003;56232;53.384;-2.732;2023-12-07T01:16:46;26;24;
69123;PMS5003;56232;53.384;-2.732;2023-12-07T01:19:12;23;23;
69123;PMS5003;56232;53.384;-2.732;2023-12-07T01:21:37;21;20;
69123;PMS5003;56232;53.384;-2.732;2023-12-07T01:24:03;26;23;
69123;PMS5003;56232;53.384;-2.732;2023-12-07T01:26:29;26;26;
69123;PMS5003;56232;53.384;-2.732;2023-12-07T01:28:54;30;26;
69123;PMS5003;56232;53.384;-2.732;2023-12-07T01:31:19;23;22;
69123;PMS5003;56232;53.384;-2.732;2023-12-07T01:33:45;24;24;
69123;PMS5003;56232;53.384;-2.732;2023-12-07T01:36:10;24;21;
69123;PMS5003;56232;53.384;-2.732;2023-12-07T01:38:36;24;24;
69123;PMS5003;56232;53.384;-2.732;2023-12-07T01:41:01;19;19;
69123;PMS5003;56232;53.384;-2.732;2023-12-07T01:43:27;31;27;
69123;PMS5003;56232;53.384;-2.732;2023-12-07T01:45:52;25;24;
69123;PMS5003;56232;53.384;-2.732;2023-12-07T01:48:17;27;26;
69123;PMS5003;56232;53.384;-2.732;2023-12-07T01:50:42;22;21;
69123;PMS5003;56232;53.384;-2.732;2023-12-07T01:53:08;24;23;
69123;PMS5003;56232;53.384;-2.732;2023-12-07T01:55:34;23;23;
69123;PMS5003;56232;53.384;-2.732;2023-12-07T01:57:59;23;23;
69123;PMS5003;56232;53.384;-2.732;2023-12-07T02:00:26;27;25;
69123;PMS5003;56232;53.384;-2.732;2023-12-07T02:02:50;23;22;
69123;PMS5003;56232;53.384;-2.732;2023-12-07T02:05:16;26;22;
69123;PMS5003;56232;53.384;-2.732;2023-12-07T02:07:41;30;22;
69123;PMS5003;56232;53.384;-2.732;2023-12-07T02:10:07;27;26;
69123;PMS5003;56232;53.384;-2.732;2023-12-07T02:12:33;28;27;
69123;PMS5003;56232;53.384;-2.732;2023-12-07T02:14:59;25;23;
69123;PMS5003;56232;53.384;-2.732;2023-12-07T02:17:26;29;27;
69123;PMS5003;56232;53.384;-2.732;2023-12-07T02:19:52;24;24;
69123;PMS5003;56232;53.384;-2.732;2023-12-07T02:22:17;31;24;
69123;PMS5003;56232;53.384;-2.732;2023-12-07T02:24:42;30;26;
69123;PMS5003;56232;53.384;-2.732;2023-12-07T02:27:06;23;23;
69123;PMS5003;56232;53.384;-2.732;2023-12-07T02:29:32;25;24;
69123;PMS5003;56232;53.384;-2.732;2023-12-07T02:31:57;31;27;
69123;PMS5003;56232;53.384;-2.732;2023-12-07T02:34:23;35;29;
69123;PMS5003;56232;53.384;-2.732;2023-12-07T02:36:49;32;30;
69123;PMS5003;56232;53.384;-2.732;2023-12-07T02:39:14;23;23;
69123;PMS5003;56232;53.384;-2.732;2023-12-07T02:41:40;35;30;
69123;PMS5003;56232;53.384;-2.732;2023-12-07T02:44:05;28;27;
69123;PMS5003;56232;53.384;-2.732;2023-12-07T02:46:31;28;27;
69123;PMS5003;56232;53.384;-2.732;2023-12-07T02:48:56;34;28;
69123;PMS5003;56232;53.384;-2.732;2023-12-07T02:51:22;26;26;
69123;PMS5003;56232;53.384;-2.732;2023-12-07T02:53:47;30;27;
69123;PMS5003;56232;53.384;-2.732;2023-12-07T02:56:13;25;24;
69123;PMS5003;56232;53.384;-2.732;2023-12-07T02:58:39;30;29;
69123;PMS5003;56232;53.384;-2.732;2023-12-07T03:01:05;29;28;
69123;PMS5003;56232;53.384;-2.732;2023-12-07T03:03:35;27;26;
69123;PMS5003;56232;53.384;-2.732;2023-12-07T03:05:55;24;23;
69123;PMS5003;56232;53.384;-2.732;2023-12-07T03:08:21;30;28;
69123;PMS5003;56232;53.384;-2.732;2023-12-07T03:10:47;30;28;
69123;PMS5003;56232;53.384;-2.732;2023-12-07T03:13:13;28;26;
69123;PMS5003;56232;53.384;-2.732;2023-12-07T03:15:38;23;23;
69123;PMS5003;56232;53.384;-2.732;2023-12-07T03:18:03;28;25;
69123;PMS5003;56232;53.384;-2.732;2023-12-07T03:20:28;26;23;
69123;PMS5003;56232;53.384;-2.732;2023-12-07T03:22:53;26;22;
69123;PMS5003;56232;53.384;-2.732;2023-12-07T03:25:19;28;25;
69123;PMS5003;56232;53.384;-2.732;2023-12-07T03:27:44;26;24;
69123;PMS5003;56232;53.384;-2.732;2023-12-07T03:30:10;27;26;
69123;PMS5003;56232;53.384;-2.732;2023-12-07T03:32:35;23;22;
69123;PMS5003;56232;53.384;-2.732;2023-12-07T03:35:00;27;27;
69123;PMS5003;56232;53.384;-2.732;2023-12-07T03:37:26;32;28;
69123;PMS5003;56232;53.384;-2.732;2023-12-07T03:39:51;22;21;
69123;PMS5003;56232;53.384;-2.732;2023-12-07T03:42:17;26;25;
69123;PMS5003;56232;53.384;-2.732;2023-12-07T03:44:42;27;24;
69123;PMS5003;56232;53.384;-2.732;2023-12-07T03:47:07;25;23;
69123;PMS5003;56232;53.384;-2.732;2023-12-07T03:49:32;29;26;
69123;PMS5003;56232;53.384;-2.732;2023-12-07T03:51:57;26;25;
69123;PMS5003;56232;53.384;-2.732;2023-12-07T03:54:23;29;28;
69123;PMS5003;56232;53.384;-2.732;2023-12-07T03:56:48;24;24;
69123;PMS5003;56232;53.384;-2.732;2023-12-07T03:59:14;28;27;
69123;PMS5003;56232;53.384;-2.732;2023-12-07T04:01:39;33;29;
69123;PMS5003;56232;53.384;-2.732;2023-12-07T04:04:05;23;22;
69123;PMS5003;56232;53.384;-2.732;2023-12-07T04:06:31;31;26;
69123;PMS5003;56232;53.384;-2.732;2023-12-07T04:08:56;21;20;
69123;PMS5003;56232;53.384;-2.732;2023-12-07T04:11:22;31;26;
69123;PMS5003;56232;53.384;-2.732;2023-12-07T04:13:47;25;22;
69123;PMS5003;56232;53.384;-2.732;2023-12-07T04:16:12;27;26;
69123;PMS5003;56232;53.384;-2.732;2023-12-07T04:18:38;22;21;
69123;PMS5003;56232;53.384;-2.732;2023-12-07T04:21:04;23;22;
69123;PMS5003;56232;53.384;-2.732;2023-12-07T04:23:29;22;22;
69123;PMS5003;56232;53.384;-2.732;2023-12-07T04:25:54;21;21;
69123;PMS5003;56232;53.384;-2.732;2023-12-07T04:28:19;23;22;
69123;PMS5003;56232;53.384;-2.732;2023-12-07T04:30:45;27;25;
69123;PMS5003;56232;53.384;-2.732;2023-12-07T04:33:10;22;21;
69123;PMS5003;56232;53.384;-2.732;2023-12-07T04:35:35;24;22;
69123;PMS5003;56232;53.384;-2.732;2023-12-07T04:38:01;23;21;
69123;PMS5003;56232;53.384;-2.732;2023-12-07T04:40:27;23;21;
69123;PMS5003;56232;53.384;-2.732;2023-12-07T04:42:51;25;22;
69123;PMS5003;56232;53.384;-2.732;2023-12-07T04:45:17;23;19;
69123;PMS5003;56232;53.384;-2.732;2023-12-07T04:47:42;21;21;
69123;PMS5003;56232;53.384;-2.732;2023-12-07T04:50:09;23;23;
69123;PMS5003;56232;53.384;-2.732;2023-12-07T04:52:34;21;21;
69123;PMS5003;56232;53.384;-2.732;2023-12-07T04:54:59;21;21;
69123;PMS5003;56232;53.384;-2.732;2023-12-07T04:57:25;23;23;
69123;PMS5003;56232;53.384;-2.732;2023-12-07T04:59:51;22;22;
69123;PMS5003;56232;53.384;-2.732;2023-12-07T05:02:16;25;23;
69123;PMS5003;56232;53.384;-2.732;2023-12-07T05:04:42;22;21;
69123;PMS5003;56232;53.384;-2.732;2023-12-07T05:07:07;19;19;
69123;PMS5003;56232;53.384;-2.732;2023-12-07T05:09:33;20;18;
69123;PMS5003;56232;53.384;-2.732;2023-12-07T05:11:58;18;18;
69123;PMS5003;56232;53.384;-2.732;2023-12-07T05:14:24;19;18;
69123;PMS5003;56232;53.384;-2.732;2023-12-07T05:16:49;20;19;
69123;PMS5003;56232;53.384;-2.732;2023-12-07T05:19:15;16;16;
69123;PMS5003;56232;53.384;-2.732;2023-12-07T05:21:40;17;17;
69123;PMS5003;56232;53.384;-2.732;2023-12-07T05:24:06;23;20;
69123;PMS5003;56232;53.384;-2.732;2023-12-07T05:26:31;17;17;
69123;PMS5003;56232;53.384;-2.732;2023-12-07T05:28:57;26;22;
69123;PMS5003;56232;53.384;-2.732;2023-12-07T05:31:22;16;15;
69123;PMS5003;56232;53.384;-2.732;2023-12-07T05:33:48;18;18;
69123;PMS5003;56232;53.384;-2.732;2023-12-07T05:36:14;20;19;
69123;PMS5003;56232;53.384;-2.732;2023-12-07T05:38:40;17;17;
69123;PMS5003;56232;53.384;-2.732;2023-12-07T05:41:05;26;21;
69123;PMS5003;56232;53.384;-2.732;2023-12-07T05:43:31;19;19;
69123;PMS5003;56232;53.384;-2.732;2023-12-07T05:45:56;19;19;
69123;PMS5003;56232;53.384;-2.732;2023-12-07T05:48:22;15;15;
69123;PMS5003;56232;53.384;-2.732;2023-12-07T05:50:47;22;20;
69123;PMS5003;56232;53.384;-2.732;2023-12-07T05:53:13;18;18;
69123;PMS5003;56232;53.384;-2.732;2023-12-07T05:55:38;18;17;
69123;PMS5003;56232;53.384;-2.732;2023-12-07T05:58:04;18;17;
69123;PMS5003;56232;53.384;-2.732;2023-12-07T06:00:29;16;16;
69123;PMS5003;56232;53.384;-2.732;2023-12-07T06:05:21;18;17;
69123;PMS5003;56232;53.384;-2.732;2023-12-07T06:07:46;20;16;
69123;PMS5003;56232;53.384;-2.732;2023-12-07T06:10:11;17;16;
69123;PMS5003;56232;53.384;-2.732;2023-12-07T06:12:37;19;18;
69123;PMS5003;56232;53.384;-2.732;2023-12-07T06:15:03;17;16;
69123;PMS5003;56232;53.384;-2.732;2023-12-07T06:17:28;17;16;
69123;PMS5003;56232;53.384;-2.732;2023-12-07T06:19:53;16;16;
69123;PMS5003;56232;53.384;-2.732;2023-12-07T06:22:19;18;16;
69123;PMS5003;56232;53.384;-2.732;2023-12-07T06:24:44;16;16;
69123;PMS5003;56232;53.384;-2.732;2023-12-07T06:27:09;20;19;
69123;PMS5003;56232;53.384;-2.732;2023-12-07T06:29:35;21;17;
69123;PMS5003;56232;53.384;-2.732;2023-12-07T06:32:00;17;16;
69123;PMS5003;56232;53.384;-2.732;2023-12-07T06:34:25;16;16;
69123;PMS5003;56232;53.384;-2.732;2023-12-07T06:36:51;20;18;
69123;PMS5003;56232;53.384;-2.732;2023-12-07T06:39:16;17;17;
69123;PMS5003;56232;53.384;-2.732;2023-12-07T06:41:42;17;17;
69123;PMS5003;56232;53.384;-2.732;2023-12-07T06:44:07;15;15;
69123;PMS5003;56232;53.384;-2.732;2023-12-07T06:46:33;18;17;
69123;PMS5003;56232;53.384;-2.732;2023-12-07T06:48:59;15;15;
69123;PMS5003;56232;53.384;-2.732;2023-12-07T06:51:24;22;20;
69123;PMS5003;56232;53.384;-2.732;2023-12-07T06:53:50;17;17;
69123;PMS5003;56232;53.384;-2.732;2023-12-07T06:56:15;15;15;
69123;PMS5003;56232;53.384;-2.732;2023-12-07T06:58:41;15;14;
69123;PMS5003;56232;53.384;-2.732;2023-12-07T07:01:06;18;17;
69123;PMS5003;56232;53.384;-2.732;2023-12-07T07:03:32;15;14;
69123;PMS5003;56232;53.384;-2.732;2023-12-07T07:05:57;16;16;
69123;PMS5003;56232;53.384;-2.732;2023-12-07T07:08:23;15;15;
69123;PMS5003;56232;53.384;-2.732;2023-12-07T07:10:49;16;16;
69123;PMS5003;56232;53.384;-2.732;2023-12-07T07:13:15;14;14;
69123;PMS5003;56232;53.384;-2.732;2023-12-07T07:15:41;15;15;
69123;PMS5003;56232;53.384;-2.732;2023-12-07T07:18:06;15;15;
69123;PMS5003;56232;53.384;-2.732;2023-12-07T07:20:31;18;18;
69123;PMS5003;56232;53.384;-2.732;2023-12-07T07:22:57;18;18;
69123;PMS5003;56232;53.384;-2.732;2023-12-07T07:25:23;14;14;
69123;PMS5003;56232;53.384;-2.732;2023-12-07T07:27:48;18;17;
69123;PMS5003;56232;53.384;-2.732;2023-12-07T07:30:13;16;14;
69123;PMS5003;56232;53.384;-2.732;2023-12-07T07:32:39;14;14;
69123;PMS5003;56232;53.384;-2.732;2023-12-07T07:35:05;18;16;
69123;PMS5003;56232;53.384;-2.732;2023-12-07T07:37:30;17;16;
69123;PMS5003;56232;53.384;-2.732;2023-12-07T07:39:55;16;16;
69123;PMS5003;56232;53.384;-2.732;2023-12-07T07:42:21;16;16;
69123;PMS5003;56232;53.384;-2.732;2023-12-07T07:44:46;15;15;
69123;PMS5003;56232;53.384;-2.732;2023-12-07T07:47:12;14;13;
69123;PMS5003;56232;53.384;-2.732;2023-12-07T07:49:38;16;15;
69123;PMS5003;56232;53.384;-2.732;2023-12-07T07:52:03;14;14;
69123;PMS5003;56232;53.384;-2.732;2023-12-07T07:54:30;16;16;
69123;PMS5003;56232;53.384;-2.732;2023-12-07T07:56:54;17;16;
69123;PMS5003;56232;53.384;-2.732;2023-12-07T07:59:20;13;13;
69123;PMS5003;56232;53.384;-2.732;2023-12-07T08:01:46;15;14;
69123;PMS5003;56232;53.384;-2.732;2023-12-07T08:04:11;12;12;
69123;PMS5003;56232;53.384;-2.732;2023-12-07T08:06:37;16;15;
69123;PMS5003;56232;53.384;-2.732;2023-12-07T08:09:03;13;13;
69123;PMS5003;56232;53.384;-2.732;2023-12-07T08:11:29;13;13;
69123;PMS5003;56232;53.384;-2.732;2023-12-07T08:13:54;15;15;
69123;PMS5003;56232;53.384;-2.732;2023-12-07T08:16:20;15;14;
69123;PMS5003;56232;53.384;-2.732;2023-12-07T08:18:45;13;13;
69123;PMS5003;56232;53.384;-2.732;2023-12-07T08:23:36;15;14;
69123;PMS5003;56232;53.384;-2.732;2023-12-07T08:26:02;12;12;
69123;PMS5003;56232;53.384;-2.732;2023-12-07T08:28:28;13;13;
69123;PMS5003;56232;53.384;-2.732;2023-12-07T08:30:53;15;15;
69123;PMS5003;56232;53.384;-2.732;2023-12-07T08:33:19;14;13;
69123;PMS5003;56232;53.384;-2.732;2023-12-07T08:35:44;14;13;
69123;PMS5003;56232;53.384;-2.732;2023-12-07T08:38:10;12;11;
69123;PMS5003;56232;53.384;-2.732;2023-12-07T08:40:36;13;13;
69123;PMS5003;56232;53.384;-2.732;2023-12-07T08:43:07;13;13;
69123;PMS5003;56232;53.384;-2.732;2023-12-07T08:45:28;13;12;
69123;PMS5003;56232;53.384;-2.732;2023-12-07T08:47:53;12;12;
69123;PMS5003;56232;53.384;-2.732;2023-12-07T08:50:18;17;12;
69123;PMS5003;56232;53.384;-2.732;2023-12-07T08:52:44;17;17;
69123;PMS5003;56232;53.384;-2.732;2023-12-07T08:55:09;16;14;
69123;PMS5003;56232;53.384;-2.732;2023-12-07T08:57:35;12;12;
69123;PMS5003;56232;53.384;-2.732;2023-12-07T09:00:01;13;12;
69123;PMS5003;56232;53.384;-2.732;2023-12-07T09:02:26;11;11;
69123;PMS5003;56232;53.384;-2.732;2023-12-07T09:04:52;12;12;
69123;PMS5003;56232;53.384;-2.732;2023-12-07T09:07:18;15;15;
69123;PMS5003;56232;53.384;-2.732;2023-12-07T09:09:43;13;13;
69123;PMS5003;56232;53.384;-2.732;2023-12-07T09:12:09;13;13;
69123;PMS5003;56232;53.384;-2.732;2023-12-07T09:14:34;11;11;
69123;PMS5003;56232;53.384;-2.732;2023-12-07T09:17:00;13;13;
69123;PMS5003;56232;53.384;-2.732;2023-12-07T09:19:26;12;11;
69123;PMS5003;56232;53.384;-2.732;2023-12-07T09:21:52;13;12;
69123;PMS5003;56232;53.384;-2.732;2023-12-07T09:24:17;13;13;
69123;PMS5003;56232;53.384;-2.732;2023-12-07T09:26:43;13;13;
69123;PMS5003;56232;53.384;-2.732;2023-12-07T09:29:09;13;12;
69123;PMS5003;56232;53.384;-2.732;2023-12-07T09:31:34;14;14;
69123;PMS5003;56232;53.384;-2.732;2023-12-07T09:34:00;14;13;
69123;PMS5003;56232;53.384;-2.732;2023-12-07T09:36:26;14;13;
69123;PMS5003;56232;53.384;-2.732;2023-12-07T09:38:52;14;14;
69123;PMS5003;56232;53.384;-2.732;2023-12-07T09:41:17;13;13;
69123;PMS5003;56232;53.384;-2.732;2023-12-07T09:43:43;12;12;
69123;PMS5003;56232;53.384;-2.732;2023-12-07T09:46:09;14;14;
69123;PMS5003;56232;53.384;-2.732;2023-12-07T09:48:34;15;14;
69123;PMS5003;56232;53.384;-2.732;2023-12-07T09:51:00;12;12;
69123;PMS5003;56232;53.384;-2.732;2023-12-07T09:53:25;12;12;
69123;PMS5003;56232;53.384;-2.732;2023-12-07T09:55:51;14;14;
69123;PMS5003;56232;53.384;-2.732;2023-12-07T09:58:17;15;14;
69123;PMS5003;56232;53.384;-2.732;2023-12-07T10:00:43;14;13;
69123;PMS5003;56232;53.384;-2.732;2023-12-07T10:03:09;14;13;
69123;PMS5003;56232;53.384;-2.732;2023-12-07T10:05:34;15;15;
69123;PMS5003;56232;53.384;-2.732;2023-12-07T10:07:59;18;17;
69123;PMS5003;56232;53.384;-2.732;2023-12-07T10:10:25;12;11;
69123;PMS5003;56232;53.384;-2.732;2023-12-07T10:12:51;14;14;
69123;PMS5003;56232;53.384;-2.732;2023-12-07T10:15:17;15;15;
69123;PMS5003;56232;53.384;-2.732;2023-12-07T10:17:46;14;14;
69123;PMS5003;56232;53.384;-2.732;2023-12-07T10:20:06;17;15;
69123;PMS5003;56232;53.384;-2.732;2023-12-07T10:22:31;14;13;
69123;PMS5003;56232;53.384;-2.732;2023-12-07T10:24:57;12;12;
69123;PMS5003;56232;53.384;-2.732;2023-12-07T10:27:22;14;12;
69123;PMS5003;56232;53.384;-2.732;2023-12-07T10:29:47;14;14;
69123;PMS5003;56232;53.384;-2.732;2023-12-07T10:32:13;13;13;
69123;PMS5003;56232;53.384;-2.732;2023-12-07T10:34:39;13;12;
69123;PMS5003;56232;53.384;-2.732;2023-12-07T10:37:04;15;14;
69123;PMS5003;56232;53.384;-2.732;2023-12-07T10:39:31;14;14;
69123;PMS5003;56232;53.384;-2.732;2023-12-07T10:41:56;14;13;
69123;PMS5003;56232;53.384;-2.732;2023-12-07T10:44:21;13;13;
69123;PMS5003;56232;53.384;-2.732;2023-12-07T10:46:47;13;13;
69123;PMS5003;56232;53.384;-2.732;2023-12-07T10:49:19;12;12;
69123;PMS5003;56232;53.384;-2.732;2023-12-07T10:51:40;14;13;
69123;PMS5003;56232;53.384;-2.732;2023-12-07T10:54:04;12;12;
69123;PMS5003;56232;53.384;-2.732;2023-12-07T10:56:32;10;10;
69123;PMS5003;56232;53.384;-2.732;2023-12-07T10:58:55;12;12;
69123;PMS5003;56232;53.384;-2.732;2023-12-07T11:01:26;11;11;
69123;PMS5003;56232;53.384;-2.732;2023-12-07T11:03:46;10;10;
69123;PMS5003;56232;53.384;-2.732;2023-12-07T11:06:12;9;9;
69123;PMS5003;56232;53.384;-2.732;2023-12-07T11:08:38;13;12;
69123;PMS5003;56232;53.384;-2.732;2023-12-07T11:11:04;12;12;
69123;PMS5003;56232;53.384;-2.732;2023-12-07T11:13:30;13;12;
69123;PMS5003;56232;53.384;-2.732;2023-12-07T11:15:55;9;9;
69123;PMS5003;56232;53.384;-2.732;2023-12-07T11:18:21;12;12;
69123;PMS5003;56232;53.384;-2.732;2023-12-07T11:20:46;12;12;
69123;PMS5003;56232;53.384;-2.732;2023-12-07T11:23:12;13;12;
69123;PMS5003;56232;53.384;-2.732;2023-12-07T11:25:37;11;11;
69123;PMS5003;56232;53.384;-2.732;2023-12-07T11:28:04;11;11;
69123;PMS5003;56232;53.384;-2.732;2023-12-07T11:30:30;11;10;
69123;PMS5003;56232;53.384;-2.732;2023-12-07T11:32:54;8;7;
69123;PMS5003;56232;53.384;-2.732;2023-12-07T11:35:20;9;9;
69123;PMS5003;56232;53.384;-2.732;2023-12-07T11:40:12;9;9;
69123;PMS5003;56232;53.384;-2.732;2023-12-07T11:42:37;11;11;
69123;PMS5003;56232;53.384;-2.732;2023-12-07T11:45:03;9;9;
69123;PMS5003;56232;53.384;-2.732;2023-12-07T11:47:29;10;10;
69123;PMS5003;56232;53.384;-2.732;2023-12-07T11:49:54;11;11;
69123;PMS5003;56232;53.384;-2.732;2023-12-07T11:52:20;8;8;
69123;PMS5003;56232;53.384;-2.732;2023-12-07T11:54:46;10;10;
69123;PMS5003;56232;53.384;-2.732;2023-12-07T11:57:11;9;9;
69123;PMS5003;56232;53.384;-2.732;2023-12-07T11:59:37;9;9;
69123;PMS5003;56232;53.384;-2.732;2023-12-07T12:02:03;14;10;
69123;PMS5003;56232;53.384;-2.732;2023-12-07T12:04:29;12;11;
69123;PMS5003;56232;53.384;-2.732;2023-12-07T12:06:54;10;10;
69123;PMS5003;56232;53.384;-2.732;2023-12-07T12:09:20;8;8;
69123;PMS5003;56232;53.384;-2.732;2023-12-07T12:11:46;11;11;
69123;PMS5003;56232;53.384;-2.732;2023-12-07T12:14:11;7;7;
69123;PMS5003;56232;53.384;-2.732;2023-12-07T12:16:37;9;8;
69123;PMS5003;56232;53.384;-2.732;2023-12-07T12:19:03;9;9;
69123;PMS5003;56232;53.384;-2.732;2023-12-07T12:21:29;13;12;
69123;PMS5003;56232;53.384;-2.732;2023-12-07T12:23:54;12;11;
69123;PMS5003;56232;53.384;-2.732;2023-12-07T12:26:20;11;10;
69123;PMS5003;56232;53.384;-2.732;2023-12-07T12:28:46;13;12;
69123;PMS5003;56232;53.384;-2.732;2023-12-07T12:31:11;13;12;
69123;PMS5003;56232;53.384;-2.732;2023-12-07T12:33:37;11;11;
69123;PMS5003;56232;53.384;-2.732;2023-12-07T12:36:03;10;10;
69123;PMS5003;56232;53.384;-2.732;2023-12-07T12:38:30;11;11;
69123;PMS5003;56232;53.384;-2.732;2023-12-07T12:40:54;13;12;
69123;PMS5003;56232;53.384;-2.732;2023-12-07T12:43:20;13;13;
69123;PMS5003;56232;53.384;-2.732;2023-12-07T12:45:45;12;12;
69123;PMS5003;56232;53.384;-2.732;2023-12-07T12:48:11;13;12;
69123;PMS5003;56232;53.384;-2.732;2023-12-07T12:50:37;13;12;
69123;PMS5003;56232;53.384;-2.732;2023-12-07T12:53:03;13;12;
69123;PMS5003;56232;53.384;-2.732;2023-12-07T12:55:30;12;12;
69123;PMS5003;56232;53.384;-2.732;2023-12-07T12:57:55;13;12;
69123;PMS5003;56232;53.384;-2.732;2023-12-07T13:00:19;12;12;
69123;PMS5003;56232;53.384;-2.732;2023-12-07T13:02:45;15;14;
69123;PMS5003;56232;53.384;-2.732;2023-12-07T13:05:11;12;12;
69123;PMS5003;56232;53.384;-2.732;2023-12-07T13:07:36;14;14;
69123;PMS5003;56232;53.384;-2.732;2023-12-07T13:10:02;12;11;
69123;PMS5003;56232;53.384;-2.732;2023-12-07T13:12:28;13;13;
69123;PMS5003;56232;53.384;-2.732;2023-12-07T13:14:53;12;12;
69123;PMS5003;56232;53.384;-2.732;2023-12-07T13:17:19;13;12;
69123;PMS5003;56232;53.384;-2.732;2023-12-07T13:19:44;13;13;
69123;PMS5003;56232;53.384;-2.732;2023-12-07T13:22:10;14;12;
69123;PMS5003;56232;53.384;-2.732;2023-12-07T13:24:36;11;10;
69123;PMS5003;56232;53.384;-2.732;2023-12-07T13:27:02;10;10;
69123;PMS5003;56232;53.384;-2.732;2023-12-07T13:29:27;14;13;
69123;PMS5003;56232;53.384;-2.732;2023-12-07T13:31:53;12;12;
69123;PMS5003;56232;53.384;-2.732;2023-12-07T13:34:18;12;12;
69123;PMS5003;56232;53.384;-2.732;2023-12-07T13:36:44;13;12;
69123;PMS5003;56232;53.384;-2.732;2023-12-07T13:39:10;13;12;
69123;PMS5003;56232;53.384;-2.732;2023-12-07T13:41:35;14;11;
69123;PMS5003;56232;53.384;-2.732;2023-12-07T13:44:00;14;12;
69123;PMS5003;56232;53.384;-2.732;2023-12-07T13:46:26;12;12;
69123;PMS5003;56232;53.384;-2.732;2023-12-07T13:48:52;11;11;
69123;PMS5003;56232;53.384;-2.732;2023-12-07T13:51:17;11;11;
69123;PMS5003;56232;53.384;-2.732;2023-12-07T13:53:43;10;10;
69123;PMS5003;56232;53.384;-2.732;2023-12-07T13:56:08;12;12;
69123;PMS5003;56232;53.384;-2.732;2023-12-07T13:58:34;12;11;
69123;PMS5003;56232;53.384;-2.732;2023-12-07T14:00:59;14;13;
69123;PMS5003;56232;53.384;-2.732;2023-12-07T14:03:25;10;10;
69123;PMS5003;56232;53.384;-2.732;2023-12-07T14:05:51;14;12;
69123;PMS5003;56232;53.384;-2.732;2023-12-07T14:08:16;12;12;
69123;PMS5003;56232;53.384;-2.732;2023-12-07T14:10:42;10;10;
69123;PMS5003;56232;53.384;-2.732;2023-12-07T14:13:07;11;9;
69123;PMS5003;56232;53.384;-2.732;2023-12-07T14:15:33;12;11;
69123;PMS5003;56232;53.384;-2.732;2023-12-07T14:17:59;9;9;
69123;PMS5003;56232;53.384;-2.732;2023-12-07T14:20:24;9;9;
69123;PMS5003;56232;53.384;-2.732;2023-12-07T14:22:50;10;10;
69123;PMS5003;56232;53.384;-2.732;2023-12-07T14:25:15;9;8;
69123;PMS5003;56232;53.384;-2.732;2023-12-07T14:27:41;12;11;
69123;PMS5003;56232;53.384;-2.732;2023-12-07T14:30:07;11;10;
69123;PMS5003;56232;53.384;-2.732;2023-12-07T14:32:32;9;8;
69123;PMS5003;56232;53.384;-2.732;2023-12-07T14:34:57;10;10;
69123;PMS5003;56232;53.384;-2.732;2023-12-07T14:37:23;8;8;
69123;PMS5003;56232;53.384;-2.732;2023-12-07T14:39:49;11;11;
69123;PMS5003;56232;53.384;-2.732;2023-12-07T14:42:14;13;11;
69123;PMS5003;56232;53.384;-2.732;2023-12-07T14:44:40;13;13;
69123;PMS5003;56232;53.384;-2.732;2023-12-07T14:47:06;10;10;
69123;PMS5003;56232;53.384;-2.732;2023-12-07T14:49:32;10;9;
69123;PMS5003;56232;53.384;-2.732;2023-12-07T14:51:57;11;11;
69123;PMS5003;56232;53.384;-2.732;2023-12-07T14:54:29;12;11;
69123;PMS5003;56232;53.384;-2.732;2023-12-07T14:56:49;10;10;
69123;PMS5003;56232;53.384;-2.732;2023-12-07T14:59:15;10;10;
69123;PMS5003;56232;53.384;-2.732;2023-12-07T15:01:40;8;8;
69123;PMS5003;56232;53.384;-2.732;2023-12-07T15:04:05;14;10;
69123;PMS5003;56232;53.384;-2.732;2023-12-07T15:06:31;11;10;
69123;PMS5003;56232;53.384;-2.732;2023-12-07T15:08:57;9;9;
69123;PMS5003;56232;53.384;-2.732;2023-12-07T15:11:23;11;10;
69123;PMS5003;56232;53.384;-2.732;2023-12-07T15:13:48;10;10;
69123;PMS5003;56232;53.384;-2.732;2023-12-07T15:16:14;10;10;
69123;PMS5003;56232;53.384;-2.732;2023-12-07T15:18:39;10;10;
69123;PMS5003;56232;53.384;-2.732;2023-12-07T15:21:05;14;14;
69123;PMS5003;56232;53.384;-2.732;2023-12-07T15:23:31;13;13;
69123;PMS5003;56232;53.384;-2.732;2023-12-07T15:25:56;15;14;
69123;PMS5003;56232;53.384;-2.732;2023-12-07T15:28:22;15;14;
69123;PMS5003;56232;53.384;-2.732;2023-12-07T15:30:47;14;14;
69123;PMS5003;56232;53.384;-2.732;2023-12-07T15:33:13;13;11;
69123;PMS5003;56232;53.384;-2.732;2023-12-07T15:35:39;11;11;
69123;PMS5003;56232;53.384;-2.732;2023-12-07T15:38:04;10;10;
69123;PMS5003;56232;53.384;-2.732;2023-12-07T15:40:30;11;11;
69123;PMS5003;56232;53.384;-2.732;2023-12-07T15:42:55;12;11;
69123;PMS5003;56232;53.384;-2.732;2023-12-07T15:45:21;13;12;
69123;PMS5003;56232;53.384;-2.732;2023-12-07T15:47:47;15;15;
69123;PMS5003;56232;53.384;-2.732;2023-12-07T15:50:12;9;9;
69123;PMS5003;56232;53.384;-2.732;2023-12-07T15:52:38;10;10;
69123;PMS5003;56232;53.384;-2.732;2023-12-07T15:55:04;12;12;
69123;PMS5003;56232;53.384;-2.732;2023-12-07T15:57:30;11;11;
69123;PMS5003;56232;53.384;-2.732;2023-12-07T15:59:55;12;12;